createdAt,value
2018-08-06T00:01:08.123Z,48.74
2018-08-06T00:03:35.787Z,48.76
2018-08-06T00:06:03.503Z,48.89
2018-08-06T00:08:31.206Z,48.89
2018-08-06T00:10:58.808Z,48.86
2018-08-06T00:13:26.445Z,48.81
2018-08-06T00:15:54.072Z,49.02
2018-08-06T00:18:21.838Z,49.45
2018-08-06T00:20:49.415Z,48.45
2018-08-06T00:23:17.009Z,48.63
2018-08-06T00:25:44.633Z,48.58
2018-08-06T00:28:12.281Z,48.94
2018-08-06T00:30:39.921Z,49.10
2018-08-06T00:33:07.532Z,48.96
2018-08-06T00:35:35.216Z,49.43
2018-08-06T00:38:02.904Z,49.40
2018-08-06T00:40:30.572Z,49.52
2018-08-06T00:42:58.186Z,49.34
2018-08-06T00:45:25.844Z,49.61
2018-08-06T00:47:53.461Z,49.86
2018-08-06T00:50:21.074Z,49.41
2018-08-06T00:52:48.704Z,50.07
2018-08-06T00:55:17.644Z,50.44
2018-08-06T00:57:45.223Z,50.32
2018-08-06T01:00:15.237Z,49.99
2018-08-06T01:02:43.025Z,50.65
2018-08-06T01:05:11.735Z,50.62
2018-08-06T01:07:39.752Z,50.86
2018-08-06T01:10:09.297Z,50.27
2018-08-06T01:12:37.860Z,50.81
2018-08-06T01:15:06.093Z,50.51
2018-08-06T01:17:33.800Z,50.76
2018-08-06T01:20:01.447Z,50.57
2018-08-06T01:22:29.133Z,50.62
2018-08-06T01:24:56.796Z,50.78
2018-08-06T01:27:24.415Z,51.03
2018-08-06T01:29:52.141Z,50.66
2018-08-06T01:32:19.823Z,50.60
2018-08-06T01:34:47.528Z,51.35
2018-08-06T01:37:15.139Z,51.18
2018-08-06T01:39:42.739Z,50.94
2018-08-06T01:42:10.343Z,50.74
2018-08-06T01:44:37.964Z,51.22
2018-08-06T01:47:05.676Z,51.33
2018-08-06T01:49:33.282Z,51.07
2018-08-06T01:52:00.872Z,51.35
2018-08-06T01:54:28.485Z,51.34
2018-08-06T01:56:56.134Z,51.67
2018-08-06T01:59:23.691Z,51.38
2018-08-06T02:01:51.368Z,51.72
2018-08-06T02:04:18.973Z,51.69
2018-08-06T02:06:46.579Z,51.13
2018-08-06T02:09:14.196Z,51.33
2018-08-06T02:11:41.811Z,51.70
2018-08-06T02:14:09.415Z,52.09
2018-08-06T02:16:37.095Z,52.12
2018-08-06T02:19:04.706Z,52.08
2018-08-06T02:21:32.272Z,52.41
2018-08-06T02:23:59.951Z,52.41
2018-08-06T02:26:27.700Z,52.54
2018-08-06T02:28:55.339Z,52.31
2018-08-06T02:31:23.008Z,52.46
2018-08-06T02:33:50.631Z,52.88
2018-08-06T02:36:18.300Z,52.74
2018-08-06T02:38:45.891Z,52.71
2018-08-06T02:41:13.533Z,52.90
2018-08-06T02:43:41.248Z,53.07
2018-08-06T02:46:08.896Z,53.01
2018-08-06T02:48:36.511Z,53.08
2018-08-06T02:51:04.171Z,53.14
2018-08-06T02:53:31.822Z,53.27
2018-08-06T02:55:59.500Z,53.04
2018-08-06T02:58:27.245Z,53.14
2018-08-06T03:00:54.979Z,53.38
2018-08-06T03:03:22.602Z,52.83
2018-08-06T03:05:50.210Z,52.90
2018-08-06T03:08:17.859Z,52.87
2018-08-06T03:10:45.515Z,53.36
2018-08-06T03:13:13.170Z,53.47
2018-08-06T03:15:40.836Z,53.57
2018-08-06T03:18:08.516Z,53.39
2018-08-06T03:20:36.100Z,53.42
2018-08-06T03:23:03.743Z,53.41
2018-08-06T03:25:31.468Z,53.45
2018-08-06T03:27:59.038Z,53.49
2018-08-06T03:33:08.436Z,54.06
2018-08-06T03:35:36.052Z,53.86
2018-08-06T03:38:03.690Z,54.08
2018-08-06T03:40:31.399Z,54.18
2018-08-06T03:42:59.028Z,54.05
2018-08-06T03:45:26.655Z,54.28
2018-08-06T03:47:54.325Z,54.19
2018-08-06T03:50:21.958Z,54.25
2018-08-06T03:52:49.591Z,54.01
2018-08-06T03:55:17.275Z,54.35
2018-08-06T03:57:44.891Z,54.47
2018-08-06T04:00:13.703Z,54.39
2018-08-06T04:02:41.908Z,54.49
2018-08-06T04:05:11.303Z,54.49
2018-08-06T04:07:39.348Z,55.09
2018-08-06T04:10:08.303Z,54.90
2018-08-06T04:12:35.922Z,54.86
2018-08-06T04:15:04.332Z,54.88
2018-08-06T04:17:31.971Z,55.07
2018-08-06T04:19:59.603Z,55.01
2018-08-06T04:22:27.215Z,54.64
2018-08-06T04:24:54.911Z,54.35
2018-08-06T04:27:22.539Z,54.72
2018-08-06T04:29:50.115Z,54.29
2018-08-06T04:32:17.752Z,54.62
2018-08-06T04:34:45.341Z,54.95
2018-08-06T04:37:12.944Z,55.06
2018-08-06T04:39:40.623Z,54.80
2018-08-06T04:42:08.263Z,55.17
2018-08-06T04:44:35.903Z,55.52
2018-08-06T04:47:03.588Z,54.57
2018-08-06T04:49:31.165Z,54.71
2018-08-06T04:51:58.804Z,54.54
2018-08-06T04:54:26.465Z,54.87
2018-08-06T04:56:54.091Z,54.52
2018-08-06T04:59:21.765Z,54.01
2018-08-06T05:01:49.384Z,53.96
2018-08-06T05:04:16.952Z,53.76
2018-08-06T05:06:44.675Z,52.92
2018-08-06T05:09:19.675Z,53.60
2018-08-06T05:11:47.379Z,53.84
2018-08-06T05:14:15.009Z,53.96
2018-08-06T05:16:42.769Z,54.05
2018-08-06T05:19:10.634Z,54.30
2018-08-06T05:21:38.390Z,53.68
2018-08-06T05:24:06.120Z,52.47
2018-08-06T05:26:33.905Z,51.91
2018-08-06T05:29:01.575Z,51.76
2018-08-06T05:31:29.331Z,51.43
2018-08-06T05:33:57.922Z,51.40
2018-08-06T05:36:25.539Z,51.29
2018-08-06T05:38:54.476Z,51.73
2018-08-06T05:41:23.422Z,51.39
2018-08-06T05:43:51.903Z,50.48
2018-08-06T05:46:19.585Z,50.46
2018-08-06T05:48:47.187Z,51.10
2018-08-06T05:51:14.805Z,50.33
2018-08-06T05:53:42.491Z,49.89
2018-08-06T05:56:10.759Z,49.89
2018-08-06T05:58:38.980Z,50.26
2018-08-06T06:01:06.747Z,49.75
2018-08-06T06:03:34.423Z,49.32
2018-08-06T06:06:02.052Z,49.09
2018-08-06T06:08:29.752Z,47.72
2018-08-06T06:10:57.324Z,47.93
2018-08-06T06:13:24.960Z,47.09
2018-08-06T06:15:52.760Z,46.90
2018-08-06T06:18:20.320Z,46.26
2018-08-06T06:20:47.932Z,46.18
2018-08-06T06:23:15.654Z,45.37
2018-08-06T06:25:43.307Z,45.05
2018-08-06T06:28:10.973Z,44.91
2018-08-06T06:30:38.675Z,44.55
2018-08-06T06:33:06.336Z,44.15
2018-08-06T06:35:33.988Z,44.04
2018-08-06T06:38:01.668Z,44.42
2018-08-06T06:40:29.437Z,42.73
2018-08-06T06:42:57.055Z,41.77
2018-08-06T06:45:24.771Z,40.95
2018-08-06T06:47:52.552Z,40.85
2018-08-06T06:50:20.131Z,40.75
2018-08-06T06:52:47.735Z,40.71
2018-08-06T06:55:15.381Z,40.69
2018-08-06T06:57:43.456Z,39.46
2018-08-06T07:00:11.380Z,39.10
2018-08-06T07:02:39.563Z,38.25
2018-08-06T07:05:07.403Z,37.77
2018-08-06T07:07:35.476Z,37.13
2018-08-06T07:10:03.752Z,38.58
2018-08-06T07:12:31.465Z,37.66
2018-08-06T07:14:59.295Z,36.50
2018-08-06T07:17:26.947Z,36.80
2018-08-06T07:19:54.764Z,34.14
2018-08-06T07:22:22.925Z,34.10
2018-08-06T07:24:50.556Z,33.93
2018-08-06T07:27:18.167Z,34.47
2018-08-06T07:29:45.950Z,34.15
2018-08-06T07:32:13.655Z,32.88
2018-08-06T07:34:41.342Z,31.92
2018-08-06T07:37:08.990Z,30.11
2018-08-06T07:39:36.597Z,30.86
2018-08-06T07:42:04.303Z,29.73
2018-08-06T07:44:32.164Z,30.07
2018-08-06T07:46:59.817Z,30.80
2018-08-06T07:49:27.481Z,30.35
2018-08-06T07:51:55.056Z,29.88
2018-08-06T07:54:22.684Z,29.65
2018-08-06T07:56:50.259Z,29.95
2018-08-06T07:59:17.916Z,30.01
2018-08-06T08:01:45.571Z,29.42
2018-08-06T08:04:13.198Z,28.95
2018-08-06T08:06:40.935Z,29.14
2018-08-06T08:09:10.068Z,28.53
2018-08-06T08:11:37.875Z,27.71
2018-08-06T08:14:05.749Z,27.74
2018-08-06T08:16:33.813Z,27.55
2018-08-06T08:19:01.376Z,27.34
2018-08-06T08:21:29.092Z,26.74
2018-08-06T08:23:56.759Z,27.28
2018-08-06T08:26:24.526Z,27.23
2018-08-06T08:28:52.284Z,25.81
2018-08-06T08:31:19.933Z,25.44
2018-08-06T08:33:47.634Z,24.43
2018-08-06T08:36:15.464Z,24.86
2018-08-06T08:38:43.208Z,24.52
2018-08-06T08:41:11.127Z,23.31
2018-08-06T08:43:38.776Z,22.89
2018-08-06T08:46:06.612Z,22.35
2018-08-06T08:48:35.565Z,22.09
2018-08-06T08:51:03.304Z,22.45
2018-08-06T08:53:30.973Z,21.83
2018-08-06T08:55:59.609Z,20.57
2018-08-06T08:58:27.292Z,20.06
2018-08-06T09:00:55.130Z,19.33
2018-08-06T09:03:22.838Z,19.32
2018-08-06T09:05:50.525Z,19.94
2018-08-06T09:08:18.189Z,20.83
2018-08-06T09:10:46.340Z,20.68
2018-08-06T09:13:15.948Z,19.50
2018-08-06T09:15:43.523Z,19.38
2018-08-06T09:18:11.111Z,18.12
2018-08-06T09:20:38.755Z,19.48
2018-08-06T09:23:06.535Z,18.48
2018-08-06T09:25:34.199Z,18.09
2018-08-06T09:28:01.889Z,16.80
2018-08-06T09:30:29.606Z,18.45
2018-08-06T09:32:57.774Z,19.03
2018-08-06T09:35:25.394Z,18.80
2018-08-06T09:37:53.192Z,17.54
2018-08-06T09:40:21.908Z,17.80
2018-08-06T09:42:50.133Z,17.64
2018-08-06T09:45:19.036Z,17.37
2018-08-06T09:47:47.954Z,17.66
2018-08-06T09:50:16.527Z,18.03
2018-08-06T09:52:45.004Z,17.60
2018-08-06T09:55:13.958Z,16.19
2018-08-06T09:57:42.147Z,16.48
2018-08-06T10:00:19.028Z,16.54
2018-08-06T10:02:47.583Z,15.63
2018-08-06T10:05:15.258Z,15.87
2018-08-06T10:07:43.195Z,16.22
2018-08-06T10:10:12.403Z,15.14
2018-08-06T10:12:40.607Z,15.71
2018-08-06T10:15:09.056Z,15.76
2018-08-06T10:17:36.872Z,16.45
2018-08-06T10:20:06.506Z,16.41
2018-08-06T10:22:34.096Z,16.38
2018-08-06T10:25:01.790Z,16.12
2018-08-06T10:27:29.436Z,16.07
2018-08-06T10:29:57.212Z,15.43
2018-08-06T10:32:24.851Z,15.24
2018-08-06T10:34:53.617Z,15.63
2018-08-06T10:37:21.396Z,15.17
2018-08-06T10:39:49.578Z,15.17
2018-08-06T10:42:17.365Z,14.74
2018-08-06T10:44:44.986Z,15.54
2018-08-06T10:47:12.638Z,15.08
2018-08-06T10:49:40.240Z,15.41
2018-08-06T10:52:07.960Z,15.61
2018-08-06T10:54:35.631Z,15.00
2018-08-06T10:57:03.298Z,15.18
2018-08-06T10:59:30.916Z,14.65
2018-08-06T11:01:58.659Z,14.73
2018-08-06T11:04:26.369Z,14.87
2018-08-06T11:06:54.375Z,14.74
2018-08-06T11:09:22.016Z,14.92
2018-08-06T11:11:49.647Z,14.79
2018-08-06T11:14:17.427Z,13.91
2018-08-06T11:16:45.020Z,14.06
2018-08-06T11:19:12.656Z,13.05
2018-08-06T11:21:40.371Z,14.18
2018-08-06T11:24:08.243Z,13.54
2018-08-06T11:26:35.995Z,13.61
2018-08-06T11:29:03.831Z,12.99
2018-08-06T11:31:31.571Z,12.88
2018-08-06T11:33:59.250Z,12.49
2018-08-06T11:36:26.908Z,12.32
2018-08-06T11:38:54.551Z,12.01
2018-08-06T11:41:22.173Z,11.68
2018-08-06T11:43:49.788Z,11.79
2018-08-06T11:46:17.427Z,11.98
2018-08-06T11:48:45.103Z,11.58
2018-08-06T11:51:12.703Z,11.76
2018-08-06T11:53:40.382Z,12.59
2018-08-06T11:56:08.029Z,12.32
2018-08-06T11:58:35.663Z,12.34
2018-08-06T12:01:03.422Z,11.69
2018-08-06T12:03:31.096Z,11.92
2018-08-06T12:05:58.720Z,11.33
2018-08-06T12:08:26.397Z,11.10
2018-08-06T12:10:53.999Z,10.64
2018-08-06T12:13:21.594Z,10.56
2018-08-06T12:15:49.242Z,10.26
2018-08-06T12:18:16.839Z,10.91
2018-08-06T12:20:44.516Z,10.41
2018-08-06T12:23:12.189Z,10.26
2018-08-06T12:25:39.786Z,10.92
2018-08-06T12:28:07.494Z,10.00
2018-08-06T12:30:35.328Z,10.01
2018-08-06T12:33:02.968Z,10.60
2018-08-06T12:35:30.932Z,10.04
2018-08-06T12:37:58.612Z,9.27
2018-08-06T12:40:26.203Z,8.74
2018-08-06T12:42:53.875Z,9.62
2018-08-06T12:45:21.571Z,9.62
2018-08-06T12:47:49.220Z,9.81
2018-08-06T12:50:17.343Z,9.00
2018-08-06T12:52:45.138Z,9.36
2018-08-06T12:55:14.089Z,9.88
2018-08-06T12:57:42.594Z,8.82
2018-08-06T13:00:16.905Z,9.94
2018-08-06T13:02:45.101Z,8.40
2018-08-06T13:05:12.910Z,9.30
2018-08-06T13:07:41.143Z,9.42
2018-08-06T13:10:08.890Z,8.90
2018-08-06T13:12:37.765Z,9.53
2018-08-06T13:15:06.184Z,8.55
2018-08-06T13:17:33.847Z,8.96
2018-08-06T13:20:02.338Z,8.94
2018-08-06T13:22:30.201Z,8.14
2018-08-06T13:24:57.967Z,8.65
2018-08-06T13:27:25.580Z,8.91
2018-08-06T13:29:53.251Z,9.17
2018-08-06T13:32:20.924Z,8.57
2018-08-06T13:34:48.500Z,8.61
2018-08-06T13:37:16.178Z,8.89
2018-08-06T13:39:43.778Z,9.03
2018-08-06T13:42:11.561Z,9.15
2018-08-06T13:44:39.196Z,8.71
2018-08-06T13:47:06.900Z,8.80
2018-08-06T13:49:34.444Z,8.63
2018-08-06T13:52:02.119Z,8.26
2018-08-06T13:54:29.802Z,8.38
2018-08-06T13:56:57.383Z,8.28
2018-08-06T13:59:25.228Z,8.75
2018-08-06T14:01:52.695Z,8.33
2018-08-06T14:04:20.357Z,8.36
2018-08-06T14:06:48.033Z,8.28
2018-08-06T14:09:15.652Z,8.12
2018-08-06T14:11:43.320Z,8.34
2018-08-06T14:14:10.955Z,8.06
2018-08-06T14:16:38.855Z,8.37
2018-08-06T14:19:06.468Z,8.52
2018-08-06T14:21:34.391Z,8.89
2018-08-06T14:24:02.120Z,8.72
2018-08-06T14:26:29.725Z,9.34
2018-08-06T14:28:57.569Z,8.60
2018-08-06T14:31:25.213Z,9.09
2018-08-06T14:33:53.443Z,9.07
2018-08-06T14:36:21.127Z,8.60
2018-08-06T14:38:48.715Z,9.00
2018-08-06T14:41:16.377Z,8.94
2018-08-06T14:43:44.029Z,9.10
2018-08-06T14:46:11.719Z,9.33
2018-08-06T14:48:39.457Z,8.87
2018-08-06T14:51:07.268Z,9.01
2018-08-06T14:53:35.036Z,9.22
2018-08-06T14:56:02.707Z,9.31
2018-08-06T14:58:30.340Z,9.31
2018-08-06T15:00:59.019Z,9.34
2018-08-06T15:03:26.767Z,9.38
2018-08-06T15:05:54.456Z,9.44
2018-08-06T15:08:22.082Z,8.72
2018-08-06T15:10:49.785Z,9.20
2018-08-06T15:13:17.464Z,9.89
2018-08-06T15:15:45.108Z,10.15
2018-08-06T15:18:12.729Z,9.67
2018-08-06T15:20:40.448Z,10.27
2018-08-06T15:23:08.088Z,10.49
2018-08-06T15:25:35.756Z,10.47
2018-08-06T15:28:03.535Z,10.67
2018-08-06T15:30:31.320Z,10.87
2018-08-06T15:32:58.944Z,11.15
2018-08-06T15:35:26.823Z,11.29
2018-08-06T15:37:54.658Z,12.05
2018-08-06T15:40:22.879Z,11.20
2018-08-06T15:42:50.534Z,12.75
2018-08-06T15:45:18.272Z,12.70
2018-08-06T15:47:46.279Z,13.00
2018-08-06T15:50:16.799Z,13.59
2018-08-06T15:52:44.492Z,14.39
2018-08-06T15:55:12.257Z,14.77
2018-08-06T15:57:39.930Z,14.08
2018-08-06T16:00:10.035Z,12.30
2018-08-06T16:02:37.827Z,13.35
2018-08-06T16:05:06.727Z,14.83
2018-08-06T16:07:34.456Z,14.40
2018-08-06T16:10:02.172Z,16.06
2018-08-06T16:12:30.264Z,17.21
2018-08-06T16:14:57.995Z,17.81
2018-08-06T16:17:25.608Z,19.00
2018-08-06T16:19:53.440Z,19.24
2018-08-06T16:22:21.126Z,19.27
2018-08-06T16:24:48.776Z,19.67
2018-08-06T16:27:16.560Z,18.67
2018-08-06T16:29:44.131Z,19.28
2018-08-06T16:32:11.846Z,19.39
2018-08-06T16:34:39.629Z,20.17
2018-08-06T16:37:07.217Z,19.91
2018-08-06T16:39:34.834Z,20.33
2018-08-06T16:42:02.638Z,20.47
2018-08-06T16:44:30.352Z,19.47
2018-08-06T16:46:58.508Z,19.57
2018-08-06T16:49:26.144Z,20.72
2018-08-06T16:51:53.798Z,20.48
2018-08-06T16:54:21.643Z,20.47
2018-08-06T16:56:49.384Z,20.26
2018-08-06T16:59:17.275Z,20.38
2018-08-06T17:01:45.001Z,20.40
2018-08-06T17:04:13.264Z,19.90
2018-08-06T17:06:40.984Z,20.03
2018-08-06T17:09:09.050Z,20.12
2018-08-06T17:11:36.755Z,20.17
2018-08-06T17:14:04.977Z,20.27
2018-08-06T17:16:32.651Z,20.18
2018-08-06T17:19:00.281Z,20.72
2018-08-06T17:21:27.920Z,20.55
2018-08-06T17:23:55.598Z,21.19
2018-08-06T17:26:28.088Z,20.91
2018-08-06T17:28:55.825Z,20.68
2018-08-06T17:31:23.435Z,20.96
2018-08-06T17:33:51.119Z,20.83
2018-08-06T17:36:18.752Z,20.68
2018-08-06T17:38:46.393Z,21.52
2018-08-06T17:41:14.056Z,21.39
2018-08-06T17:43:41.651Z,21.35
2018-08-06T17:46:09.271Z,21.67
2018-08-06T17:48:36.902Z,21.63
2018-08-06T17:51:04.487Z,21.68
2018-08-06T17:53:32.112Z,21.61
2018-08-06T17:55:59.716Z,21.36
2018-08-06T17:58:27.472Z,21.61
2018-08-06T18:00:55.145Z,21.48
2018-08-06T18:03:22.815Z,22.25
2018-08-06T18:05:50.440Z,21.69
2018-08-06T18:08:18.156Z,21.94
2018-08-06T18:10:45.769Z,22.42
2018-08-06T18:13:13.376Z,22.13
2018-08-06T18:15:40.988Z,22.63
2018-08-06T18:18:08.683Z,22.41
2018-08-06T18:20:36.423Z,22.24
2018-08-06T18:23:04.083Z,22.24
2018-08-06T18:25:31.832Z,22.75
2018-08-06T18:27:59.427Z,23.05
2018-08-06T18:30:27.140Z,22.94
2018-08-06T18:32:54.868Z,22.71
2018-08-06T18:35:22.447Z,22.99
2018-08-06T18:37:50.073Z,23.18
2018-08-06T18:40:19.030Z,23.75
2018-08-06T18:42:46.779Z,23.76
2018-08-06T18:45:15.923Z,24.27
2018-08-06T18:47:44.592Z,24.08
2018-08-06T18:50:13.329Z,24.28
2018-08-06T18:52:41.650Z,25.10
2018-08-06T18:55:10.844Z,24.70
2018-08-06T18:57:38.677Z,24.57
2018-08-06T19:00:08.655Z,25.29
2018-08-06T19:02:36.475Z,25.29
2018-08-06T19:05:04.440Z,25.70
2018-08-06T19:07:32.119Z,25.64
2018-08-06T19:09:59.767Z,25.71
2018-08-06T19:12:32.804Z,25.96
2018-08-06T19:15:00.420Z,25.72
2018-08-06T19:17:28.084Z,25.96
2018-08-06T19:19:55.805Z,25.83
2018-08-06T19:22:23.375Z,26.34
2018-08-06T19:24:56.451Z,26.36
2018-08-06T19:27:24.215Z,26.56
2018-08-06T19:29:51.861Z,27.28
2018-08-06T19:32:19.475Z,27.06
2018-08-06T19:34:47.187Z,26.99
2018-08-06T19:37:20.319Z,27.20
2018-08-06T19:39:47.947Z,27.35
2018-08-06T19:42:15.640Z,27.66
2018-08-06T19:44:43.252Z,27.83
2018-08-06T19:47:10.919Z,27.56
2018-08-06T19:49:44.132Z,27.73
2018-08-06T19:52:11.759Z,27.55
2018-08-06T19:54:39.343Z,28.00
2018-08-06T19:57:07.093Z,28.56
2018-08-06T19:59:34.755Z,28.64
2018-08-06T20:02:02.488Z,28.92
2018-08-06T20:04:30.132Z,29.36
2018-08-06T20:06:57.874Z,29.24
2018-08-06T20:09:25.572Z,29.03
2018-08-06T20:11:53.229Z,29.58
2018-08-06T20:14:22.080Z,29.50
2018-08-06T20:16:49.690Z,29.91
2018-08-06T20:19:17.363Z,30.39
2018-08-06T20:21:45.193Z,31.07
2018-08-06T20:24:12.892Z,30.63
2018-08-06T20:26:40.493Z,31.06
2018-08-06T20:29:08.200Z,31.60
2018-08-06T20:31:35.869Z,31.44
2018-08-06T20:34:03.540Z,31.30
2018-08-06T20:36:31.176Z,31.49
2018-08-06T20:38:58.833Z,31.67
2018-08-06T20:41:26.464Z,30.66
2018-08-06T20:43:54.144Z,30.38
2018-08-06T20:46:21.737Z,30.32
2018-08-06T20:48:49.348Z,30.20
2018-08-06T20:51:17.037Z,29.94
2018-08-06T20:53:44.712Z,30.02
2018-08-06T20:56:12.431Z,29.79
2018-08-06T20:58:40.120Z,29.38
2018-08-06T21:01:07.748Z,29.43
2018-08-06T21:03:35.381Z,29.09
2018-08-06T21:06:03.200Z,28.81
2018-08-06T21:08:30.896Z,28.67
2018-08-06T21:10:58.549Z,28.24
2018-08-06T21:13:26.215Z,28.51
2018-08-06T21:15:53.856Z,28.00
2018-08-06T21:18:21.488Z,28.43
2018-08-06T21:20:49.160Z,28.23
2018-08-06T21:23:16.840Z,28.22
2018-08-06T21:25:44.491Z,28.00
2018-08-06T21:28:12.157Z,27.84
2018-08-06T21:30:39.845Z,28.16
2018-08-06T21:33:07.509Z,28.01
2018-08-06T21:35:35.173Z,28.07
2018-08-06T21:38:04.084Z,27.38
2018-08-06T21:40:31.718Z,27.32
2018-08-06T21:42:59.367Z,27.09
2018-08-06T21:45:27.094Z,26.86
2018-08-06T21:47:54.728Z,27.06
2018-08-06T21:50:22.373Z,26.82
2018-08-06T21:52:49.987Z,26.72
2018-08-06T21:55:17.652Z,27.04
2018-08-06T21:57:45.320Z,26.83
2018-08-06T22:00:30.664Z,26.61
2018-08-06T22:02:58.352Z,26.67
2018-08-06T22:05:26.064Z,26.89
2018-08-06T22:07:53.700Z,26.61
2018-08-06T22:10:21.432Z,26.93
2018-08-06T22:12:49.061Z,26.69
2018-08-06T22:15:16.756Z,27.21
2018-08-06T22:17:44.453Z,26.99
2018-08-06T22:20:12.068Z,27.08
2018-08-06T22:22:39.709Z,27.13
2018-08-06T22:25:07.512Z,27.23
2018-08-06T22:27:35.151Z,27.31
2018-08-06T22:30:02.794Z,27.54
2018-08-06T22:32:30.439Z,26.96
2018-08-06T22:34:58.056Z,27.27
2018-08-06T22:37:25.644Z,26.92
2018-08-06T22:39:53.396Z,27.22
2018-08-06T22:42:21.015Z,27.33
2018-08-06T22:44:48.631Z,26.88
2018-08-06T22:47:16.381Z,27.07
2018-08-06T22:49:44.013Z,26.90
2018-08-06T22:52:11.612Z,27.03
2018-08-06T22:54:39.264Z,26.66
2018-08-06T22:57:06.829Z,27.06
2018-08-06T22:59:34.422Z,26.90
2018-08-06T23:02:02.157Z,26.96
2018-08-06T23:04:29.794Z,26.56
2018-08-06T23:06:57.455Z,26.80
2018-08-06T23:09:25.137Z,26.68
2018-08-06T23:11:52.745Z,26.58
2018-08-06T23:14:20.357Z,26.87
2018-08-06T23:16:48.006Z,26.64
2018-08-06T23:19:15.628Z,26.43
2018-08-06T23:21:43.312Z,26.44
2018-08-06T23:24:11.051Z,26.70
2018-08-06T23:26:38.670Z,26.71
2018-08-06T23:29:06.271Z,26.42
2018-08-06T23:31:33.983Z,26.25
2018-08-06T23:34:01.590Z,26.43
2018-08-06T23:36:29.193Z,26.09
2018-08-06T23:38:56.855Z,26.06
2018-08-06T23:41:24.471Z,26.42
2018-08-06T23:43:52.120Z,26.27
2018-08-06T23:46:19.828Z,26.28
2018-08-06T23:48:47.719Z,25.90
2018-08-06T23:51:15.373Z,26.13
2018-08-06T23:53:43.084Z,25.83
2018-08-06T23:56:20.292Z,25.92
2018-08-06T23:58:47.960Z,25.73
